Time;durP1;ratioP1;P1;durP2;ratioP2;P2;SDS_P1;SDS_P2;PMS_P1;PMS_P2;Temp;Humidity;BMP_temperature;BMP_pressure;BME280_temperature;BME280_humidity;BME280_pressure;Samples;Min_cycle;Max_cycle;Signal;HPM_P1;HPM_P2
2022/10/05 00:00:15;;;;;;;2.60;2.50;;;;;;;10.13;100.00;96519.41;6174428;23;20000;-63
2022/10/05 00:02:41;;;;;;;5.13;2.60;;;;;;;10.15;100.00;96522.75;6175264;23;20474;-70
2022/10/05 00:05:20;;;;;;;3.60;2.35;;;;;;;10.12;100.00;96522.16;6175293;23;20028;-59
2022/10/05 00:07:45;;;;;;;4.65;2.42;;;;;;;10.12;100.00;96517.72;6174948;23;19997;-65
2022/10/05 00:10:17;;;;;;;2.97;2.40;;;;;;;10.13;100.00;96518.59;6174334;23;20054;-66
2022/10/05 00:12:47;;;;;;;6.70;2.90;;;;;;;10.16;100.00;96513.09;6174945;23;20001;-66
2022/10/05 00:15:16;;;;;;;2.95;2.60;;;;;;;10.16;100.00;96523.59;6174273;23;20078;-66
2022/10/05 00:17:41;;;;;;;4.13;2.70;;;;;;;10.17;100.00;96517.38;6174852;23;20023;-65
2022/10/05 00:20:21;;;;;;;2.58;2.38;;;;;;;10.14;100.00;96515.00;6174801;23;20448;-66
2022/10/05 00:22:47;;;;;;;4.20;2.70;;;;;;;10.10;100.00;96514.38;6174947;22;20051;-70
2022/10/05 00:25:19;;;;;;;4.75;2.50;;;;;;;10.09;100.00;96517.16;6175277;23;20013;-65
2022/10/05 00:27:52;;;;;;;5.50;2.50;;;;;;;10.03;100.00;96518.47;6174954;23;20440;-64
2022/10/05 00:30:20;;;;;;;2.63;2.42;;;;;;;10.03;100.00;96524.53;6174598;23;20004;-64
2022/10/05 00:32:46;;;;;;;8.82;2.25;;;;;;;10.08;100.00;96526.81;6174495;23;20012;-64
2022/10/05 00:35:14;;;;;;;4.28;2.50;;;;;;;10.07;100.00;96529.59;6175123;22;20038;-64
2022/10/05 00:37:40;;;;;;;3.45;2.22;;;;;;;10.07;100.00;96537.47;6174466;23;20005;-64
2022/10/05 00:40:22;;;;;;;3.35;2.10;;;;;;;10.08;100.00;96534.72;6174526;23;20063;-64
2022/10/05 00:42:48;;;;;;;5.65;2.38;;;;;;;10.04;100.00;96535.91;6174845;23;20005;-63
2022/10/05 00:45:36;;;;;;;5.00;2.90;;;;;;;9.98;100.00;96531.94;6175755;23;20007;-70
2022/10/05 00:48:21;;;;;;;2.60;2.40;;;;;;;9.94;100.00;96530.53;6175018;23;20024;-69
2022/10/05 00:51:02;;;;;;;2.63;2.47;;;;;;;9.91;100.00;96529.91;6174268;23;20001;-69
2022/10/05 00:53:52;;;;;;;2.70;2.38;;;;;;;9.84;100.00;96537.44;6175216;23;20251;-69
2022/10/05 00:56:48;;;;;;;5.53;2.88;;;;;;;9.82;100.00;96537.56;6174732;23;20080;-70
2022/10/05 00:59:22;;;;;;;2.95;2.70;;;;;;;9.77;100.00;96533.59;6174890;23;20058;-69
2022/10/05 01:02:17;;;;;;;3.22;3.03;;;;;;;9.75;100.00;96528.47;6173915;23;19993;-59
2022/10/05 01:04:55;;;;;;;2.53;2.42;;;;;;;9.73;100.00;96525.13;6173781;23;20062;-60
2022/10/05 01:07:49;;;;;;;13.05;2.63;;;;;;;9.72;100.00;96526.88;6174563;23;20005;-59
2022/10/05 01:10:44;;;;;;;2.60;2.50;;;;;;;9.66;100.00;96524.72;6174520;23;20004;-59
2022/10/05 01:13:49;;;;;;;2.83;2.60;;;;;;;9.61;100.00;96521.59;6174345;23;20017;-59
2022/10/05 01:16:34;;;;;;;6.32;2.70;;;;;;;9.60;100.00;96515.50;6174805;23;20078;-59
2022/10/05 01:19:11;;;;;;;2.55;2.40;;;;;;;9.59;100.00;96519.09;6174259;23;20052;-59
2022/10/05 01:22:12;;;;;;;2.90;2.70;;;;;;;9.55;100.00;96524.69;6174504;23;20001;-70
2022/10/05 01:24:47;;;;;;;3.45;2.38;;;;;;;9.53;100.00;96516.09;6174559;23;20094;-63
2022/10/05 01:27:29;;;;;;;2.65;2.45;;;;;;;9.51;100.00;96515.38;6174108;23;20035;-64
2022/10/05 01:30:02;;;;;;;4.88;2.45;;;;;;;9.49;100.00;96510.22;6174355;23;19997;-63
2022/10/05 01:32:40;;;;;;;4.18;2.38;;;;;;;9.48;100.00;96510.34;6174707;23;20078;-64
2022/10/05 01:35:09;;;;;;;2.72;2.55;;;;;;;9.48;100.00;96508.53;6174961;23;20001;-63
2022/10/05 01:37:43;;;;;;;3.67;2.58;;;;;;;9.50;100.00;96511.06;6174656;23;20035;-64
2022/10/05 01:40:23;;;;;;;3.92;2.10;;;;;;;9.48;100.00;96507.72;6174736;23;20001;-65
2022/10/05 01:43:19;;;;;;;2.90;2.70;;;;;;;9.40;100.00;96508.28;6174476;23;20017;-64
2022/10/05 01:46:23;;;;;;;4.85;2.60;;;;;;;9.39;100.00;96509.22;6174777;23;20370;-63
2022/10/05 01:49:14;;;;;;;7.55;3.00;;;;;;;9.39;100.00;96511.88;6174531;22;20401;-64
2022/10/05 01:52:07;;;;;;;4.75;2.67;;;;;;;9.35;100.00;96503.34;6174191;23;20019;-63
2022/10/05 01:55:03;;;;;;;4.35;2.85;;;;;;;9.32;100.00;96511.47;6175425;23;20335;-65
2022/10/05 01:57:48;;;;;;;3.22;2.92;;;;;;;9.27;100.00;96510.97;6173896;23;20004;-65
2022/10/05 02:00:16;;;;;;;4.22;3.22;;;;;;;9.25;100.00;96513.72;6174236;23;20447;-66
2022/10/05 02:02:51;;;;;;;5.25;3.17;;;;;;;9.26;100.00;96510.13;6174067;23;20029;-64
2022/10/05 02:06:07;;;;;;;3.28;3.05;;;;;;;9.26;100.00;96501.44;6174204;23;20479;-64
2022/10/05 02:09:10;;;;;;;5.18;2.95;;;;;;;9.26;100.00;96506.69;6054263;23;20022;-64
2022/10/05 02:11:39;;;;;;;3.95;3.00;;;;;;;9.24;100.00;96505.97;6145343;23;20045;-64
2022/10/05 02:14:14;;;;;;;4.88;3.70;;;;;;;9.20;100.00;96497.47;6160854;23;20443;-64
2022/10/05 02:16:47;;;;;;;4.45;2.83;;;;;;;9.14;100.00;96497.91;6147846;23;20375;-64
2022/10/05 02:19:13;;;;;;;4.90;3.00;;;;;;;9.11;100.00;96503.41;6173967;23;20025;-64
2022/10/05 02:21:42;;;;;;;4.30;2.75;;;;;;;9.13;100.00;96504.13;6175090;23;20364;-64
2022/10/05 02:24:12;;;;;;;3.40;3.10;;;;;;;9.14;100.00;96497.91;6175874;23;20604;-64
2022/10/05 02:26:39;;;;;;;3.10;2.80;;;;;;;9.15;100.00;96494.34;6175494;23;20036;-64
2022/10/05 02:29:16;;;;;;;3.17;2.90;;;;;;;9.09;100.00;96493.00;6174829;23;20005;-64
2022/10/05 02:31:56;;;;;;;3.25;3.05;;;;;;;9.13;100.00;96498.88;6176061;23;20216;-64
2022/10/05 02:34:28;;;;;;;3.53;3.30;;;;;;;9.17;100.00;96498.53;6175993;23;20079;-64
2022/10/05 02:37:15;;;;;;;4.47;3.03;;;;;;;9.15;100.00;96491.72;6176394;22;20370;-65
2022/10/05 02:39:53;;;;;;;5.53;2.95;;;;;;;9.12;100.00;96494.56;6177405;23;19997;-64
2022/10/05 02:42:24;;;;;;;3.28;2.97;;;;;;;9.09;100.00;96485.13;6177504;23;19997;-69
2022/10/05 02:45:16;;;;;;;3.75;2.85;;;;;;;9.07;100.00;96491.44;6177418;23;20389;-68
2022/10/05 02:48:10;;;;;;;11.63;2.90;;;;;;;9.06;100.00;96493.22;6175902;23;20396;-68
2022/10/05 02:50:58;;;;;;;5.57;2.95;;;;;;;9.10;100.00;96494.66;6177483;23;20024;-68
2022/10/05 02:53:36;;;;;;;5.45;3.20;;;;;;;9.10;100.00;96494.66;6177224;23;20013;-68
2022/10/05 02:56:25;;;;;;;3.25;3.03;;;;;;;9.06;100.00;96497.63;6177405;23;20032;-69
2022/10/05 02:58:59;;;;;;;5.25;3.05;;;;;;;9.03;100.00;96501.34;6177129;23;20435;-60
2022/10/05 03:01:34;;;;;;;4.43;2.70;;;;;;;9.02;100.00;96502.28;6177559;23;20028;-59
2022/10/05 03:04:18;;;;;;;7.55;3.28;;;;;;;9.03;100.00;96501.34;6177451;23;20451;-59
2022/10/05 03:07:08;;;;;;;3.17;2.80;;;;;;;9.00;100.00;96497.13;6176950;23;19997;-58
2022/10/05 03:09:59;;;;;;;3.08;2.88;;;;;;;8.94;100.00;96499.38;6116781;23;20071;-59
2022/10/05 03:12:36;;;;;;;2.80;2.67;;;;;;;8.91;100.00;96492.56;6177196;23;20092;-57
2022/10/05 03:15:02;;;;;;;5.13;3.25;;;;;;;8.92;100.00;96501.25;6177751;23;20033;-58
2022/10/05 03:17:39;;;;;;;2.30;2.20;;;;;;;8.92;100.00;96496.88;6177445;23;20042;-69
2022/10/05 03:20:10;;;;;;;4.72;2.80;;;;;;;8.96;100.00;96502.75;6177586;23;20438;-64
2022/10/05 03:22:42;;;;;;;3.42;2.50;;;;;;;8.95;100.00;96504.53;6151299;23;19993;-64
2022/10/05 03:25:33;;;;;;;2.67;2.47;;;;;;;8.94;100.00;96500.22;6177405;23;20378;-64
2022/10/05 03:28:19;;;;;;;6.13;2.70;;;;;;;8.97;100.00;96497.38;6177640;23;20001;-64
2022/10/05 03:30:53;;;;;;;2.20;2.10;;;;;;;8.94;100.00;96499.38;6176499;23;20008;-64
2022/10/05 03:33:42;;;;;;;2.47;2.28;;;;;;;8.89;100.00;96497.09;6176603;23;20005;-64
2022/10/05 03:36:26;;;;;;;5.47;2.85;;;;;;;8.89;100.00;96494.47;6177119;23;20354;-65
2022/10/05 03:39:13;;;;;;;3.70;2.55;;;;;;;8.88;100.00;96493.63;6177178;23;19997;-61
2022/10/05 03:41:57;;;;;;;2.38;2.28;;;;;;;8.89;100.00;96495.28;6177240;23;20005;-60
2022/10/05 03:44:50;;;;;;;2.60;2.50;;;;;;;8.89;100.00;96487.41;6177099;23;20076;-60
2022/10/05 03:47:29;;;;;;;6.07;2.80;;;;;;;8.88;100.00;96485.75;6176821;23;20492;-60
2022/10/05 03:50:00;;;;;;;2.67;2.30;;;;;;;8.86;100.00;96492.88;6176701;23;20005;-60
2022/10/05 03:52:52;;;;;;;2.67;2.47;;;;;;;8.86;100.00;96497.31;6150749;23;20001;-60
2022/10/05 03:55:42;;;;;;;3.97;2.50;;;;;;;8.83;100.00;96487.00;6177269;23;20008;-65
2022/10/05 03:58:20;;;;;;;3.10;2.40;;;;;;;8.81;100.00;96494.16;6177205;23;20005;-70
2022/10/05 04:00:52;;;;;;;3.85;2.40;;;;;;;8.78;100.00;96492.63;6177240;22;20001;-60
2022/10/05 04:03:36;;;;;;;2.40;2.30;;;;;;;8.74;100.00;96491.16;6177425;22;20025;-60
2022/10/05 04:06:10;;;;;;;2.03;1.92;;;;;;;8.72;100.00;96495.66;6177196;23;20008;-60
2022/10/05 04:08:47;;;;;;;3.83;2.53;;;;;;;8.69;100.00;96495.91;6177732;23;20035;-60
2022/10/05 04:11:18;;;;;;;4.50;2.70;;;;;;;8.60;100.00;96497.38;6176486;23;20073;-60
2022/10/05 04:13:51;;;;;;;2.45;2.33;;;;;;;8.55;100.00;96500.38;6177251;23;20431;-59
2022/10/05 04:16:28;;;;;;;2.75;2.55;;;;;;;8.55;100.00;96500.38;6176988;23;20006;-69
2022/10/05 04:19:04;;;;;;;7.55;2.50;;;;;;;8.49;100.00;96498.13;6176790;23;20023;-71
2022/10/05 04:21:40;;;;;;;2.70;2.47;;;;;;;8.47;100.00;96492.16;6177288;23;20350;-71
2022/10/05 04:24:16;;;;;;;5.30;2.88;;;;;;;8.53;100.00;96499.63;6152745;23;19997;-71
2022/10/05 04:26:58;;;;;;;5.40;2.95;;;;;;;8.57;100.00;96498.47;6177079;22;20339;-71
2022/10/05 04:29:39;;;;;;;3.10;2.80;;;;;;;8.54;100.00;96503.94;6176774;23;20328;-71
2022/10/05 04:32:27;;;;;;;3.28;2.97;;;;;;;8.48;100.00;96506.94;6177294;23;20442;-71
2022/10/05 04:35:10;;;;;;;3.22;2.95;;;;;;;8.48;100.00;96514.81;6150577;23;20008;-61
2022/10/05 04:37:51;;;;;;;5.43;2.42;;;;;;;8.46;100.00;96511.47;6177561;22;19997;-70
2022/10/05 04:40:16;;;;;;;4.13;2.88;;;;;;;8.47;100.00;96500.03;6176901;23;20007;-70
2022/10/05 04:42:53;;;;;;;3.28;2.65;;;;;;;8.45;100.00;96508.03;6176928;23;19997;-70
2022/10/05 04:45:45;;;;;;;2.45;2.35;;;;;;;8.42;100.00;96507.38;6176951;23;20447;-69
2022/10/05 04:48:31;;;;;;;2.90;2.75;;;;;;;8.43;100.00;96506.44;6177389;23;20001;-70
2022/10/05 04:51:34;;;;;;;2.78;2.50;;;;;;;8.49;100.00;96494.69;6176324;23;20097;-69
2022/10/05 04:54:27;;;;;;;2.67;2.47;;;;;;;8.50;100.00;96496.38;6176725;23;20087;-59
2022/10/05 04:57:06;;;;;;;4.85;2.47;;;;;;;8.51;100.00;96490.19;6176576;23;19993;-60
2022/10/05 05:00:03;;;;;;;9.82;8.93;;;;;;;8.48;100.00;96495.63;6177136;23;19997;-60
2022/10/05 05:02:34;;;;;;;7.05;6.47;;;;;;;8.48;100.00;96483.31;6176761;22;20009;-60
2022/10/05 05:05:11;;;;;;;4.40;4.07;;;;;;;8.43;100.00;96488.06;6176297;23;20039;-61
2022/10/05 05:07:43;;;;;;;3.03;2.83;;;;;;;8.43;100.00;96485.44;6177334;23;20042;-61
2022/10/05 05:10:14;;;;;;;2.65;2.55;;;;;;;8.36;100.00;96479.78;6176855;23;20196;-61
2022/10/05 05:13:17;;;;;;;5.30;3.00;;;;;;;8.33;100.00;96482.63;6176450;23;20050;-64
2022/10/05 05:15:53;;;;;;;3.72;2.58;;;;;;;8.37;100.00;96485.88;6176745;23;20013;-64
2022/10/05 05:19:03;;;;;;;8.95;3.40;;;;;;;8.41;100.00;96487.34;6176903;22;20017;-63
2022/10/05 05:21:44;;;;;;;6.68;3.45;;;;;;;8.42;100.00;96483.78;6178417;23;20472;-64
2022/10/05 05:24:39;;;;;;;4.70;2.80;;;;;;;8.42;100.00;96487.25;6178383;23;20078;-64
2022/10/05 05:27:38;;;;;;;3.13;2.80;;;;;;;8.39;100.00;96491.88;6171055;23;20012;-63
2022/10/05 05:30:13;;;;;;;3.80;3.50;;;;;;;8.31;100.00;96493.25;6176409;23;19997;-64
2022/10/05 05:32:48;;;;;;;3.25;3.05;;;;;;;8.26;100.00;96494.53;6150566;22;20013;-64
2022/10/05 05:35:22;;;;;;;3.75;2.90;;;;;;;8.27;100.00;96497.00;6176552;23;20447;-70
2022/10/05 05:37:53;;;;;;;3.65;3.40;;;;;;;8.29;100.00;96495.16;6176346;23;20082;-70
2022/10/05 05:40:31;;;;;;;6.82;3.63;;;;;;;8.25;100.00;96504.16;6176203;23;20447;-69
2022/10/05 05:43:01;;;;;;;3.05;2.80;;;;;;;8.26;100.00;96510.25;6176767;23;20525;-70
2022/10/05 05:45:58;;;;;;;4.00;2.83;;;;;;;8.27;100.00;96512.75;6176386;23;20036;-69
2022/10/05 05:48:35;;;;;;;3.10;2.90;;;;;;;8.25;100.00;96519.91;6176853;23;20313;-69
2022/10/05 05:51:09;;;;;;;4.35;2.60;;;;;;;8.25;100.00;96516.44;6176426;23;20016;-70
2022/10/05 05:53:44;;;;;;;3.80;2.63;;;;;;;8.26;100.00;96520.75;6177157;23;20075;-64
2022/10/05 05:56:11;;;;;;;2.88;2.67;;;;;;;8.26;100.00;96511.09;6176334;23;20791;-65
2022/10/05 05:58:50;;;;;;;4.05;2.55;;;;;;;8.25;100.00;96519.06;6176796;23;20003;-65
2022/10/05 06:01:39;;;;;;;7.32;3.00;;;;;;;8.25;100.00;96521.69;6176287;23;19993;-65
2022/10/05 06:04:10;;;;;;;3.90;2.75;;;;;;;8.28;100.00;96524.09;6176514;23;20435;-65
2022/10/05 06:06:41;;;;;;;3.47;2.55;;;;;;;8.31;100.00;96523.88;6176757;23;20324;-65
2022/10/05 06:09:19;;;;;;;4.70;3.17;;;;;;;8.29;100.00;96531.03;6176640;23;20000;-65
2022/10/05 06:11:55;;;;;;;9.77;3.22;;;;;;;8.28;100.00;96529.34;6176328;23;20005;-65
2022/10/05 06:14:32;;;;;;;3.88;3.42;;;;;;;8.33;100.00;96532.47;6176114;23;20473;-66
2022/10/05 06:17:06;;;;;;;7.35;2.75;;;;;;;8.35;100.00;96530.59;6175801;23;20066;-66
2022/10/05 06:19:33;;;;;;;6.47;2.92;;;;;;;8.39;100.00;96536.47;6176342;23;20024;-66
2022/10/05 06:22:11;;;;;;;3.42;3.22;;;;;;;8.43;100.00;96532.69;6176423;23;20222;-65
2022/10/05 06:25:05;;;;;;;3.40;3.15;;;;;;;8.45;100.00;96541.28;6177260;22;20071;-66
2022/10/05 06:27:55;;;;;;;5.57;3.40;;;;;;;8.43;100.00;96543.19;6175295;23;20036;-66
2022/10/05 06:30:21;;;;;;;4.43;3.20;;;;;;;8.44;100.00;96547.47;6175945;23;19993;-64
2022/10/05 06:32:49;;;;;;;6.03;3.03;;;;;;;8.43;100.00;96541.41;6176154;23;20001;-66
2022/10/05 06:35:32;;;;;;;3.63;3.05;;;;;;;8.46;100.00;96556.06;6175877;23;20070;-67
2022/10/05 06:38:11;;;;;;;4.75;3.00;;;;;;;8.47;100.00;96555.13;6176096;23;20841;-67
2022/10/05 06:41:07;;;;;;;3.85;3.50;;;;;;;8.49;100.00;96555.84;6176209;23;20500;-67
2022/10/05 06:43:54;;;;;;;5.28;3.55;;;;;;;8.49;100.00;96555.84;6175939;23;19993;-69
2022/10/05 06:46:31;;;;;;;3.88;3.58;;;;;;;8.51;100.00;96556.66;6175728;23;20012;-69
2022/10/05 06:49:08;;;;;;;4.03;3.72;;;;;;;8.54;100.00;96561.69;6174694;22;20005;-58
2022/10/05 06:51:56;;;;;;;3.75;3.45;;;;;;;8.55;100.00;96563.34;6174714;23;20036;-62
2022/10/05 06:54:34;;;;;;;3.65;3.05;;;;;;;8.62;100.00;96562.91;6174295;23;20013;-73
2022/10/05 06:57:05;;;;;;;7.30;2.92;;;;;;;8.65;100.00;96565.31;6174625;23;20005;-70
2022/10/05 06:59:42;;;;;;;5.20;3.30;;;;;;;8.67;100.00;96568.66;6175696;23;20389;-70
2022/10/05 07:02:33;;;;;;;4.13;3.47;;;;;;;8.69;100.00;96564.16;6176188;23;20008;-71
2022/10/05 07:05:10;;;;;;;4.55;3.80;;;;;;;8.73;100.00;96563.84;6175849;23;20004;-71
2022/10/05 07:07:47;;;;;;;3.88;3.65;;;;;;;8.76;100.00;96567.19;6176047;23;20470;-65
2022/10/05 07:10:31;;;;;;;4.25;3.85;;;;;;;8.78;100.00;96565.28;6175834;23;20036;-71
2022/10/05 07:13:19;;;;;;;3.47;3.28;;;;;;;8.77;100.00;96566.22;6175570;23;20384;-58
2022/10/05 07:16:22;;;;;;;3.83;3.58;;;;;;;8.77;100.00;96564.47;6176064;23;20450;-58
2022/10/05 07:19:12;;;;;;;3.95;3.58;;;;;;;8.81;100.00;96554.56;6175421;23;20013;-58
2022/10/05 07:21:54;;;;;;;4.97;4.05;;;;;;;8.82;100.00;96556.22;6175379;23;20009;-58
2022/10/05 07:24:34;;;;;;;4.82;4.05;;;;;;;8.83;100.00;96560.53;6176772;23;20029;-58
2022/10/05 07:27:11;;;;;;;5.40;4.03;;;;;;;8.88;100.00;96568.94;6176274;23;20013;-66
2022/10/05 07:29:47;;;;;;;9.38;4.38;;;;;;;8.91;100.00;96560.00;6176639;23;20004;-59
2022/10/05 07:32:15;;;;;;;4.78;4.38;;;;;;;8.91;100.00;96558.22;6175214;23;20008;-71
2022/10/05 07:34:52;;;;;;;4.78;4.07;;;;;;;8.97;100.00;96564.81;6177324;23;20008;-70
2022/10/05 07:40:22;;;;;;;6.63;6.03;;;;;;;9.30;100.00;96576.44;6175851;23;20457;-71
2022/10/05 07:43:13;;;;;;;6.38;5.78;;;;;;;9.51;100.00;96576.69;6177295;23;20016;-70
2022/10/05 07:45:49;;;;;;;8.65;5.25;;;;;;;9.67;100.00;96586.88;6177608;23;20054;-71
2022/10/05 07:48:21;;;;;;;10.07;4.50;;;;;;;9.87;100.00;96587.19;6177013;23;20001;-58
2022/10/05 07:51:06;;;;;;;7.82;4.75;;;;;;;10.07;100.00;96596.19;6177281;23;20004;-67
2022/10/05 07:53:53;;;;;;;7.77;5.37;;;;;;;10.25;100.00;96590.47;6177107;23;20078;-67
2022/10/05 07:56:28;;;;;;;6.55;4.88;;;;;;;10.40;100.00;96596.34;6175767;23;20001;-67
2022/10/05 07:59:03;;;;;;;5.30;4.72;;;;;;;10.56;100.00;96593.38;6175678;22;20073;-67
2022/10/05 08:01:33;;;;;;;9.30;4.40;;;;;;;10.69;100.00;96595.91;6176070;22;19997;-67
2022/10/05 08:04:19;;;;;;;7.97;6.45;;;;;;;10.78;100.00;96599.59;6176421;23;20008;-67
2022/10/05 08:07:01;;;;;;;5.53;4.78;;;;;;;10.85;100.00;96593.75;6151573;23;20080;-71
2022/10/05 08:10:14;;;;;;;9.05;7.18;;;;;;;10.92;100.00;96590.59;6176348;23;20074;-60
2022/10/05 08:12:52;;;;;;;8.05;4.63;;;;;;;11.03;100.00;96591.44;6177091;23;20350;-60
2022/10/05 08:15:23;;;;;;;4.75;3.95;;;;;;;11.17;100.00;96592.97;6176886;23;20451;-60
2022/10/05 08:18:09;;;;;;;4.45;4.15;;;;;;;11.28;100.00;96588.63;6176350;22;20062;-60
2022/10/05 08:20:39;;;;;;;5.57;4.65;;;;;;;11.44;100.00;96590.84;6177301;23;20009;-60
2022/10/05 08:23:42;;;;;;;4.63;4.22;;;;;;;11.64;100.00;96589.22;6176110;23;20047;-60
2022/10/05 08:26:16;;;;;;;3.63;3.38;;;;;;;11.85;100.00;96575.22;6177454;22;20350;-60
2022/10/05 08:28:57;;;;;;;12.45;5.75;;;;;;;11.98;100.00;96575.84;6176668;23;19997;-60
2022/10/05 08:31:28;;;;;;;9.77;5.80;;;;;;;12.10;100.00;96578.47;6176862;23;20040;-60
2022/10/05 08:34:15;;;;;;;7.20;4.00;;;;;;;12.19;100.00;96575.03;6177200;23;20050;-60
2022/10/05 08:36:59;;;;;;;5.30;4.40;;;;;;;12.29;100.00;96570.66;6176232;22;20012;-60
2022/10/05 08:39:29;;;;;;;14.25;12.43;;;;;;;12.37;100.00;96564.69;6176396;23;20050;-60
2022/10/05 08:42:30;;;;;;;15.48;14.15;;;;;;;12.49;100.00;96568.13;6175812;23;19993;-60
2022/10/05 08:45:18;;;;;;;5.75;2.70;;;;;;;12.65;100.00;96561.47;6175483;23;20003;-67
2022/10/05 08:48:01;;;;;;;2.38;2.17;;;;;;;12.81;100.00;96560.97;6175357;23;20588;-60
2022/10/05 08:50:41;;;;;;;3.65;2.50;;;;;;;12.94;100.00;96560.75;6177144;23;20070;-60
2022/10/05 08:53:44;;;;;;;2.50;2.30;;;;;;;12.98;100.00;96568.25;6177352;23;20015;-60
2022/10/05 08:56:24;;;;;;;2.70;2.20;;;;;;;13.15;100.00;96569.44;6176789;23;20612;-61
2022/10/05 08:59:14;;;;;;;2.15;2.03;;;;;;;13.17;100.00;96570.13;6149582;23;20474;-60
2022/10/05 09:02:12;;;;;;;4.15;2.50;;;;;;;13.23;100.00;96571.38;6177017;23;20430;-60
2022/10/05 09:05:12;;;;;;;2.70;2.50;;;;;;;13.34;100.00;96562.47;6177543;23;20005;-70
2022/10/05 09:08:03;;;;;;;2.83;2.40;;;;;;;13.51;100.00;96562.78;6178697;23;20005;-65
2022/10/05 09:10:49;;;;;;;5.10;2.28;;;;;;;13.64;100.00;96566.00;6176835;23;20009;-65
2022/10/05 09:13:24;;;;;;;2.67;2.25;;;;;;;13.79;100.00;96570.84;6177082;23;20001;-65
2022/10/05 09:15:49;;;;;;;;;;;;;;;13.86;100.00;96566.69;6152744;23;20044;-65
2022/10/05 09:18:33;;;;;;;;;;;;;;;13.94;98.87;96569.47;6177258;23;19965;-65
2022/10/05 09:21:23;;;;;;;2.10;2.00;;;;;;;14.04;99.71;96562.34;6176505;23;19914;-65
2022/10/05 09:24:08;;;;;;;4.28;2.20;;;;;;;14.13;100.00;96562.47;6177056;23;20005;-64
2022/10/05 09:27:15;;;;;;;2.40;1.95;;;;;;;14.26;99.61;96562.16;6150833;22;20051;-60
2022/10/05 09:30:15;;;;;;;2.40;2.20;;;;;;;14.60;97.36;96553.69;6177055;23;20005;-60
2022/10/05 09:32:56;;;;;;;2.05;1.95;;;;;;;14.67;95.44;96553.91;6176900;23;20055;-60
2022/10/05 09:35:37;;;;;;;2.05;1.95;;;;;;;14.77;93.74;96545.94;6176914;23;20032;-60
2022/10/05 09:38:35;;;;;;;3.63;2.10;;;;;;;14.85;94.21;96546.88;6176719;23;20005;-60
2022/10/05 09:41:03;;;;;;;2.35;1.98;;;;;;;15.04;86.83;96545.09;6176356;23;20001;-60
2022/10/05 09:43:47;;;;;;;2.78;1.90;;;;;;;15.22;84.21;96542.47;6176804;23;20001;-67
2022/10/05 09:46:52;;;;;;;3.20;2.00;;;;;;;15.29;83.48;96542.69;6176521;23;20427;-65
2022/10/05 09:49:35;;;;;;;1.88;1.67;;;;;;;15.38;83.74;96543.63;6176047;23;20001;-65
2022/10/05 09:52:24;;;;;;;5.60;1.80;;;;;;;15.49;83.42;96548.72;6176653;23;20031;-65
2022/10/05 09:55:08;;;;;;;1.95;1.85;;;;;;;15.67;77.39;96545.19;6176798;23;20009;-65
2022/10/05 09:58:11;;;;;;;1.90;1.77;;;;;;;15.64;75.34;96551.66;6177070;23;20354;-66
2022/10/05 10:01:05;;;;;;;2.67;1.80;;;;;;;15.78;73.84;96547.63;6176797;22;20001;-65
2022/10/05 10:03:45;;;;;;;2.00;1.90;;;;;;;15.78;72.13;96547.63;6176526;23;20076;-69
2022/10/05 10:06:19;;;;;;;2.67;1.75;;;;;;;15.87;72.81;96548.53;6176249;23;20012;-64
2022/10/05 10:09:00;;;;;;;1.80;1.70;;;;;;;15.89;76.46;96549.22;6176974;22;20091;-64
2022/10/05 10:11:40;;;;;;;3.05;1.67;;;;;;;15.90;75.85;96545.59;6149582;23;20009;-64
2022/10/05 10:14:34;;;;;;;2.85;1.85;;;;;;;15.94;77.58;96546.94;6150601;22;20440;-64
2022/10/05 10:17:24;;;;;;;3.83;2.00;;;;;;;16.05;72.29;96548.50;6176453;23;20012;-63
2022/10/05 10:20:03;;;;;;;1.83;1.75;;;;;;;16.10;75.04;96553.38;6175693;23;20021;-64
2022/10/05 10:22:48;;;;;;;1.95;1.80;;;;;;;16.14;73.60;96544.94;6176912;23;20003;-65
2022/10/05 10:25:44;;;;;;;1.80;1.70;;;;;;;16.25;74.15;96550.97;6175695;23;20037;-70
2022/10/05 10:28:16;;;;;;;1.92;1.77;;;;;;;16.37;75.48;96547.06;6175984;23;20431;-69
2022/10/05 10:31:04;;;;;;;2.25;1.77;;;;;;;16.37;76.90;96536.44;6175613;23;20461;-70
2022/10/05 10:33:51;;;;;;;2.03;1.80;;;;;;;16.52;73.87;96543.81;6176215;23;20013;-71
2022/10/05 10:36:44;;;;;;;2.25;1.88;;;;;;;16.65;73.58;96535.38;6176028;23;19997;-70
2022/10/05 10:39:27;;;;;;;1.80;1.70;;;;;;;16.71;76.31;96534.78;6175836;23;20005;-70
2022/10/05 10:42:04;;;;;;;1.83;1.70;;;;;;;16.92;74.81;96534.34;6176373;23;20035;-71
2022/10/05 10:45:13;;;;;;;2.92;1.98;;;;;;;17.07;74.89;96528.44;6176292;23;20435;-66
2022/10/05 10:47:59;;;;;;;1.95;1.85;;;;;;;17.40;71.02;96531.16;6175727;23;20020;-66
2022/10/05 10:50:26;;;;;;;4.50;2.60;;;;;;;17.37;71.62;96529.66;6175953;23;20695;-67
2022/10/05 10:53:16;;;;;;;5.60;2.53;;;;;;;17.49;71.81;96534.66;6175669;23;20080;-67
2022/10/05 10:55:50;;;;;;;2.80;2.10;;;;;;;17.63;72.05;96530.50;6176326;23;20378;-67
2022/10/05 10:58:32;;;;;;;2.87;2.40;;;;;;;17.88;74.09;96523.34;6176118;23;20032;-66
2022/10/05 11:01:33;;;;;;;2.60;2.08;;;;;;;18.04;71.25;96515.38;6176775;23;20023;-68
2022/10/05 11:03:59;;;;;;;2.08;1.98;;;;;;;18.17;71.38;96520.19;6177384;23;20419;-59
2022/10/05 11:06:29;;;;;;;2.38;2.10;;;;;;;18.23;73.11;96516.00;6150511;23;20005;-59
2022/10/05 11:09:28;;;;;;;4.40;2.47;;;;;;;18.29;73.04;96518.00;6176700;22;20001;-59
2022/10/05 11:12:19;;;;;;;2.20;2.08;;;;;;;18.46;72.72;96510.78;6177044;23;20082;-59
2022/10/05 11:14:59;;;;;;;4.45;1.65;;;;;;;18.57;67.42;96514.91;6176917;23;20382;-59
2022/10/05 11:17:52;;;;;;;2.53;1.92;;;;;;;18.81;67.36;96512.31;6176987;23;20004;-59
2022/10/05 11:20:36;;;;;;;1.90;1.80;;;;;;;18.88;68.57;96510.59;6150450;22;20329;-69
2022/10/05 11:23:30;;;;;;;5.28;1.75;;;;;;;18.94;68.97;96506.41;6177180;23;20080;-60
2022/10/05 11:26:24;;;;;;;2.30;1.80;;;;;;;19.00;66.15;96505.75;6177491;23;20009;-60
2022/10/05 11:29:03;;;;;;;2.75;1.80;;;;;;;18.99;65.04;96504.91;6176654;23;20013;-60
2022/10/05 11:31:54;;;;;;;2.22;1.83;;;;;;;19.07;65.69;96489.88;6176222;23;20005;-60
2022/10/05 11:34:30;;;;;;;2.28;1.52;;;;;;;19.03;65.19;96498.22;6176824;23;20440;-60
2022/10/05 11:37:10;;;;;;;2.90;1.65;;;;;;;19.02;65.25;96491.22;6175214;23;20009;-60
2022/10/05 11:40:19;;;;;;;4.07;1.50;;;;;;;19.14;63.19;96489.00;6176404;22;20005;-64
2022/10/05 11:43:08;;;;;;;3.08;1.80;;;;;;;19.10;66.36;96484.19;6175691;23;20429;-70
2022/10/05 11:45:59;;;;;;;1.80;1.63;;;;;;;19.07;66.62;96485.34;6176951;23;20032;-70
2022/10/05 11:48:40;;;;;;;1.67;1.60;;;;;;;19.24;66.94;96480.75;6176995;23;20062;-71
2022/10/05 11:51:20;;;;;;;1.75;1.65;;;;;;;19.27;67.07;96480.41;6176823;23;20696;-71
2022/10/05 11:53:57;;;;;;;1.70;1.60;;;;;;;19.20;66.12;96474.09;6177027;23;20062;-70
2022/10/05 11:56:30;;;;;;;2.95;1.90;;;;;;;19.17;67.83;96474.44;6176571;23;20036;-61
2022/10/05 11:59:11;;;;;;;5.35;2.00;;;;;;;19.24;68.61;96469.22;6176628;23;20001;-68
2022/10/05 12:02:03;;;;;;;1.77;1.67;;;;;;;19.44;69.01;96469.56;6177391;23;20024;-59
2022/10/05 12:04:47;;;;;;;1.92;1.70;;;;;;;19.37;65.73;96469.47;6177385;22;20009;-59
2022/10/05 12:07:26;;;;;;;2.50;1.67;;;;;;;19.53;66.58;96468.53;6177078;23;20012;-59
2022/10/05 12:10:16;;;;;;;1.60;1.50;;;;;;;19.64;66.07;96458.41;6176174;23;20001;-59
2022/10/05 12:13:12;;;;;;;7.32;2.05;;;;;;;19.55;64.91;96458.47;6175238;23;20016;-59
2022/10/05 12:16:00;;;;;;;3.75;1.85;;;;;;;19.52;64.96;96458.84;6177314;22;20439;-59
2022/10/05 12:18:25;;;;;;;2.97;1.55;;;;;;;19.59;63.75;96454.44;6175416;23;20401;-66
2022/10/05 12:21:15;;;;;;;1.70;1.60;;;;;;;19.53;65.69;96447.16;6176188;23;20004;-65
2022/10/05 12:23:49;;;;;;;2.13;1.65;;;;;;;19.64;65.14;96447.72;6176689;23;20021;-65
2022/10/05 12:26:23;;;;;;;2.97;1.77;;;;;;;19.74;66.08;96441.09;6176905;23;20059;-65
2022/10/05 12:29:20;;;;;;;2.33;1.73;;;;;;;19.76;66.20;96440.94;6176716;23;20080;-65
2022/10/05 12:31:59;;;;;;;5.13;2.40;;;;;;;19.96;65.49;96441.25;6160472;23;20139;-65
2022/10/05 12:34:37;;;;;;;1.88;1.77;;;;;;;19.92;66.50;96439.97;6176512;23;20466;-65
2022/10/05 12:37:27;;;;;;;2.45;2.00;;;;;;;19.87;65.73;96431.66;6176646;23;20005;-66
2022/10/05 12:40:04;;;;;;;2.53;1.70;;;;;;;19.90;67.46;96432.13;6177055;23;20469;-67
2022/10/05 12:42:49;;;;;;;3.30;1.77;;;;;;;19.87;67.89;96428.97;6176880;23;20439;-66